LEAB

Albacete-Los Llanos Airport

Albacete, Spain
TAF LEAB 260500Z 2606/2615 VRB05KT CAVOK PROB40 TEMPO 2613/2615 FEW040TCU
Issued Valid From Valid To
Apr-26 @ 05:00 UTC
(56 minutes ago)
Apr-26 @ 06:00 UTC
(in 4 minutes)
Apr-26 @ 15:00 UTC
(in 9 hours)
Apr-26 @ 06:00 to Apr-26 @ 15:00
TAF LEAB 260500Z 2606/2615 VRB05KT CAVOK
Wind Visibility Clouds Conditions
Variable at 5 knots 10,000+ meters
  • No significant clouds
Temporary  (Probability 40%) Apr-26 @ 13:00 to Apr-26 @ 15:00
PROB40 TEMPO 2613/2615 FEW040TCU
Clouds
  • Few at 4,000' AGL
TAF LEAB 260500Z 2606/2615 VRB05KT CAVOK PROB40 TEMPO 2613/2615 FEW040TCU
Issued Apr-26 @ 05:00 UTC
(56 minutes ago)
Valid From Apr-26 @ 06:00 UTC
(in 4 minutes)
Valid To Apr-26 @ 15:00 UTC
(in 9 hours)
Apr-26 @ 06:00 - Apr-26 @ 15:00
Wind Visibility
Variable at 5 knots 10,000+ meters
Clouds
  • No significant clouds
Conditions
Probability 40% Temporary Apr-26 @ 13:00 - Apr-26 @ 15:00
Clouds
  • Few at 4,000' AGL